Time;durP1;ratioP1;P1;durP2;ratioP2;P2;SDS_P1;SDS_P2;PMS_P1;PMS_P2;Temp;Humidity;BMP_temperature;BMP_pressure;BME280_temperature;BME280_humidity;BME280_pressure;Samples;Min_cycle;Max_cycle;Signal;HPM_P1;HPM_P2
2022/01/23 00:00:34;;;;;;;0.50;0.50;;;6.00;99.90;;;;;;5002871;28;20123;-76
2022/01/23 00:03:02;;;;;;;4.60;1.30;;;6.00;99.90;;;;;;4995051;28;20048;-78
2022/01/23 00:05:37;;;;;;;0.88;0.88;;;6.00;99.90;;;;;;4999782;28;20948;-78
2022/01/23 00:08:05;;;;;;;3.08;2.63;;;6.00;99.90;;;;;;5014063;28;20046;-77
2022/01/23 00:10:31;;;;;;;1.52;1.17;;;6.00;99.90;;;;;;4997655;28;20523;-77
2022/01/23 00:13:08;;;;;;;1.95;1.27;;;6.00;99.90;;;;;;4995971;28;20044;-77
2022/01/23 00:18:20;;;;;;;2.03;0.85;;;6.00;99.90;;;;;;5017954;28;20058;-77
2022/01/23 00:20:46;;;;;;;10.77;1.67;;;6.00;99.90;;;;;;4997386;28;20073;-77
2022/01/23 00:23:29;;;;;;;1.70;0.70;;;6.00;99.90;;;;;;5022014;28;21535;-77
2022/01/23 00:31:25;;;;;;;0.20;0.20;;;6.00;99.90;;;;;;5024334;28;20057;-77
2022/01/23 00:33:54;;;;;;;4.47;1.98;;;6.00;99.90;;;;;;5025119;28;20757;-77
2022/01/23 00:36:24;;;;;;;2.13;1.77;;;6.00;99.90;;;;;;4992466;28;20136;-77
2022/01/23 00:38:50;;;;;;;4.07;2.17;;;6.00;99.90;;;;;;5037384;28;20049;-77
2022/01/23 00:41:17;;;;;;;1.45;1.05;;;6.00;99.90;;;;;;5006683;28;20049;-77
2022/01/23 00:43:44;;;;;;;0.28;0.28;;;6.00;99.90;;;;;;5020444;28;20403;-76
2022/01/23 00:51:23;;;;;;;0.20;0.20;;;5.90;99.90;;;;;;5024571;28;20060;-77
2022/01/23 00:53:49;;;;;;;0.63;0.63;;;6.00;99.90;;;;;;5024541;28;20037;-77
2022/01/23 00:56:15;;;;;;;5.25;2.50;;;5.90;99.90;;;;;;5005462;28;20084;-77
2022/01/23 00:58:40;;;;;;;5.07;2.58;;;6.00;99.90;;;;;;5026037;28;20482;-76
2022/01/23 01:01:06;;;;;;;1.20;1.10;;;6.00;99.90;;;;;;5006839;28;20049;-77
2022/01/23 01:03:32;;;;;;;0.73;0.73;;;6.00;99.90;;;;;;5007196;28;20049;-76
2022/01/23 01:05:57;;;;;;;4.70;1.35;;;6.00;99.90;;;;;;5015058;28;20088;-76
2022/01/23 01:08:23;;;;;;;1.15;1.15;;;6.00;99.90;;;;;;5006663;28;20517;-76
2022/01/23 01:11:07;;;;;;;0.38;0.38;;;5.90;99.90;;;;;;5005247;28;20048;-76
2022/01/23 01:13:55;;;;;;;1.85;1.33;;;5.90;99.90;;;;;;5016484;28;20042;-76
2022/01/23 01:32:48;;;;;;;0.73;0.73;;;5.90;99.90;;;;;;5021408;28;20057;-76
2022/01/23 01:37:45;;;;;;;0.20;0.20;;;5.90;99.90;;;;;;5015468;28;20068;-76
2022/01/23 01:40:10;;;;;;;2.30;1.17;;;5.90;99.90;;;;;;5001705;28;20041;-76
2022/01/23 01:42:36;;;;;;;2.45;2.22;;;5.90;99.90;;;;;;5022465;28;20520;-76
2022/01/23 01:45:02;;;;;;;0.20;0.20;;;5.90;99.90;;;;;;5004376;28;20128;-76
2022/01/23 01:47:28;;;;;;;0.32;0.32;;;5.90;99.90;;;;;;5011017;28;20461;-77
2022/01/23 01:49:53;;;;;;;0.40;0.40;;;5.90;99.90;;;;;;5019037;28;20046;-76
2022/01/23 01:52:19;;;;;;;0.40;0.40;;;5.90;99.90;;;;;;5008560;28;20450;-76
2022/01/23 01:54:47;;;;;;;0.50;0.50;;;5.90;99.90;;;;;;5011245;28;20045;-76
2022/01/23 01:57:14;;;;;;;0.20;0.20;;;5.90;99.90;;;;;;5025329;28;20045;-77
2022/01/23 02:10:27;;;;;;;5.72;1.83;;;5.90;99.90;;;;;;5026856;28;20049;-76
2022/01/23 02:13:06;;;;;;;0.93;0.80;;;5.90;99.90;;;;;;5006584;28;20517;-76
2022/01/23 02:16:02;;;;;;;0.20;0.20;;;5.90;99.90;;;;;;5005574;28;20073;-76
2022/01/23 02:24:03;;;;;;;3.05;1.35;;;5.90;99.90;;;;;;5022481;28;20049;-77
2022/01/23 02:51:48;;;;;;;0.20;0.20;;;5.90;99.90;;;;;;5022424;28;20489;-76
2022/01/23 02:57:07;;;;;;;0.30;0.30;;;5.90;99.90;;;;;;5003507;28;20599;-76
2022/01/23 02:59:36;;;;;;;0.20;0.20;;;5.90;99.90;;;;;;5004244;28;20057;-76
2022/01/23 03:04:36;;;;;;;1.10;1.10;;;5.90;99.90;;;;;;5016055;28;20112;-76
2022/01/23 03:07:19;;;;;;;0.20;0.20;;;5.90;99.90;;;;;;5013091;28;20510;-77
2022/01/23 03:10:07;;;;;;;0.40;0.40;;;5.90;99.90;;;;;;5000176;28;20045;-76
2022/01/23 03:26:15;;;;;;;0.20;0.20;;;5.90;99.90;;;;;;5022831;28;20441;-76
2022/01/23 03:31:31;;;;;;;0.73;0.73;;;5.90;99.90;;;;;;5025273;28;20052;-76
2022/01/23 03:33:57;;;;;;;0.20;0.20;;;5.90;99.90;;;;;;5010990;28;20147;-76
2022/01/23 03:36:23;;;;;;;0.30;0.30;;;5.90;99.90;;;;;;5008763;28;20057;-76
2022/01/23 03:38:49;;;;;;;1.08;0.70;;;5.90;99.90;;;;;;5018704;28;20041;-76
2022/01/23 03:41:15;;;;;;;0.35;0.35;;;5.90;99.90;;;;;;5007948;28;20037;-76
2022/01/23 03:43:41;;;;;;;8.63;1.73;;;5.80;99.90;;;;;;5011189;28;20520;-76
2022/01/23 03:46:21;;;;;;;0.20;0.20;;;5.80;99.90;;;;;;4996037;28;20049;-76
2022/01/23 03:51:20;;;;;;;0.20;0.20;;;5.80;99.90;;;;;;5015550;28;20128;-76
2022/01/23 03:53:47;;;;;;;0.20;0.20;;;5.90;99.90;;;;;;5022235;28;20049;-76
2022/01/23 03:56:14;;;;;;;932.63;79.55;;;5.90;99.90;;;;;;5001636;28;20065;-76
2022/01/23 03:58:40;;;;;;;0.45;0.45;;;5.90;99.90;;;;;;5012982;28;20469;-76
2022/01/23 04:01:06;;;;;;;0.50;0.50;;;5.80;99.90;;;;;;5014438;28;20189;-76
2022/01/23 04:03:34;;;;;;;0.20;0.20;;;5.80;99.90;;;;;;5001735;28;20038;-76
2022/01/23 04:06:00;;;;;;;0.20;0.20;;;5.80;99.90;;;;;;5018614;28;20109;-76
2022/01/23 04:08:26;;;;;;;0.20;0.20;;;5.90;99.90;;;;;;5021421;28;20091;-76
2022/01/23 04:10:52;;;;;;;0.55;0.55;;;5.90;99.90;;;;;;4997043;28;20065;-76
2022/01/23 04:13:28;;;;;;;0.20;0.20;;;5.90;99.90;;;;;;5025314;28;20046;-77
2022/01/23 04:16:15;;;;;;;0.20;0.20;;;5.90;99.90;;;;;;5020354;28;20041;-77
2022/01/23 04:32:45;;;;;;;0.22;0.22;;;5.90;99.90;;;;;;5016783;28;20050;-76
2022/01/23 04:46:31;;;;;;;0.98;0.85;;;5.90;99.90;;;;;;5028970;28;20049;-76
2022/01/23 04:49:06;;;;;;;0.38;0.38;;;5.80;99.90;;;;;;5029085;28;20052;-76
2022/01/23 05:00:00;;;;;;;0.20;0.20;;;5.80;99.90;;;;;;4997423;28;20049;-76
2022/01/23 05:05:09;;;;;;;6.13;1.48;;;5.80;99.90;;;;;;5011005;28;20049;-76
2022/01/23 05:07:35;;;;;;;0.30;0.30;;;5.80;99.90;;;;;;5017777;28;20046;-76
2022/01/23 05:10:01;;;;;;;0.43;0.43;;;5.80;99.90;;;;;;5018010;28;20069;-76
2022/01/23 05:12:31;;;;;;;0.20;0.20;;;5.80;99.90;;;;;;5005701;28;20129;-76
2022/01/23 05:14:57;;;;;;;0.20;0.20;;;5.80;99.90;;;;;;5006037;28;20111;-76
2022/01/23 05:17:23;;;;;;;0.30;0.30;;;5.80;99.90;;;;;;5018022;28;20049;-76
2022/01/23 05:19:49;;;;;;;0.20;0.20;;;5.80;99.90;;;;;;5010492;28;20123;-76
2022/01/23 05:24:58;;;;;;;0.47;0.47;;;5.80;99.90;;;;;;5027528;28;20060;-76
2022/01/23 05:27:27;;;;;;;0.68;0.57;;;5.80;99.90;;;;;;5025409;28;20049;-76
2022/01/23 05:29:54;;;;;;;0.20;0.20;;;5.80;99.90;;;;;;5018133;28;20052;-76
2022/01/23 05:32:21;;;;;;;0.20;0.20;;;5.80;99.90;;;;;;5028073;28;20053;-76
2022/01/23 05:34:47;;;;;;;2.50;0.68;;;5.80;99.90;;;;;;5011362;28;20053;-76
2022/01/23 05:37:13;;;;;;;5.40;2.70;;;5.80;99.90;;;;;;5020248;28;20042;-76
2022/01/23 05:39:38;;;;;;;3.60;3.00;;;5.80;99.90;;;;;;4992928;28;20659;-76
2022/01/23 05:42:07;;;;;;;0.20;0.20;;;5.80;99.90;;;;;;5006453;28;20151;-76
2022/01/23 05:44:37;;;;;;;0.25;0.25;;;5.80;99.90;;;;;;5014561;28;20049;-76
2022/01/23 05:47:05;;;;;;;2.17;1.15;;;5.80;99.90;;;;;;5027254;28;20053;-77
2022/01/23 05:49:30;;;;;;;0.40;0.40;;;5.80;99.90;;;;;;5011481;28;20200;-76
2022/01/23 05:51:56;;;;;;;0.40;0.40;;;5.80;99.90;;;;;;5023943;28;20042;-76
2022/01/23 05:54:22;;;;;;;0.60;0.60;;;5.80;99.90;;;;;;5011470;28;20044;-77
2022/01/23 05:56:48;;;;;;;0.20;0.20;;;5.80;99.90;;;;;;5018293;28;20048;-77
2022/01/23 05:59:13;;;;;;;0.20;0.20;;;5.80;99.90;;;;;;4994442;28;20533;-77
2022/01/23 06:01:39;;;;;;;0.17;0.17;;;5.80;99.90;;;;;;5026546;28;20053;-76
2022/01/23 06:04:05;;;;;;;0.20;0.20;;;5.70;99.90;;;;;;5008807;28;20080;-76
2022/01/23 06:06:30;;;;;;;0.20;0.20;;;5.70;99.90;;;;;;5003963;28;20041;-76
2022/01/23 06:08:56;;;;;;;0.20;0.20;;;5.70;99.90;;;;;;5019836;28;20368;-77
2022/01/23 06:11:22;;;;;;;0.20;0.20;;;5.60;99.90;;;;;;5025386;28;20494;-76
2022/01/23 06:13:47;;;;;;;0.30;0.30;;;5.60;99.90;;;;;;5009369;28;20132;-77
2022/01/23 06:16:13;;;;;;;0.20;0.20;;;5.50;99.90;;;;;;5010755;28;20045;-77
2022/01/23 06:18:40;;;;;;;0.40;0.40;;;5.50;99.90;;;;;;5027582;28;20045;-77
2022/01/23 06:21:07;;;;;;;0.20;0.20;;;5.50;99.90;;;;;;5016010;28;20120;-76
2022/01/23 06:23:33;;;;;;;0.60;0.60;;;5.50;99.90;;;;;;5010473;28;20046;-76
2022/01/23 06:25:59;;;;;;;0.45;0.45;;;5.50;99.90;;;;;;5021598;28;20033;-76
2022/01/23 06:28:42;;;;;;;0.50;0.50;;;5.50;99.90;;;;;;5002252;28;20120;-77
2022/01/23 06:31:08;;;;;;;0.40;0.40;;;5.50;99.90;;;;;;5015335;28;20041;-76
2022/01/23 06:33:35;;;;;;;0.20;0.20;;;5.50;99.90;;;;;;4998617;28;20064;-76
2022/01/23 06:36:02;;;;;;;0.38;0.38;;;5.50;99.90;;;;;;5006074;28;20525;-76
2022/01/23 06:38:27;;;;;;;0.20;0.20;;;5.40;99.90;;;;;;5001501;28;20417;-77
2022/01/23 06:40:53;;;;;;;0.20;0.20;;;5.50;99.90;;;;;;5000440;28;20041;-77
2022/01/23 06:43:19;;;;;;;0.20;0.20;;;5.50;99.90;;;;;;5003416;28;20135;-76
2022/01/23 06:45:44;;;;;;;0.20;0.20;;;5.50;99.90;;;;;;5022738;28;20037;-77
2022/01/23 06:48:10;;;;;;;0.88;0.57;;;5.50;99.90;;;;;;5004617;28;20517;-76
2022/01/23 06:50:35;;;;;;;0.20;0.20;;;5.50;99.90;;;;;;5008506;28;20132;-77
2022/01/23 06:53:01;;;;;;;0.20;0.20;;;5.60;99.90;;;;;;5012426;28;20030;-77
2022/01/23 06:55:26;;;;;;;0.60;0.60;;;5.50;99.90;;;;;;5008293;28;20123;-77
2022/01/23 06:57:52;;;;;;;0.22;0.22;;;5.60;99.90;;;;;;5003709;28;20058;-77
2022/01/23 07:00:18;;;;;;;0.20;0.20;;;5.60;99.90;;;;;;4997529;28;20042;-77
2022/01/23 07:02:43;;;;;;;0.20;0.20;;;5.60;99.90;;;;;;5016321;28;20410;-76
2022/01/23 07:05:09;;;;;;;0.20;0.20;;;5.50;99.90;;;;;;5008887;28;20041;-76
2022/01/23 07:07:35;;;;;;;0.20;0.20;;;5.50;99.90;;;;;;5010473;28;20092;-77
2022/01/23 07:10:00;;;;;;;0.20;0.20;;;5.50;99.90;;;;;;5011086;28;20060;-77
2022/01/23 07:12:26;;;;;;;0.20;0.20;;;5.60;99.90;;;;;;5014667;28;20046;-76
2022/01/23 07:14:51;;;;;;;0.20;0.20;;;5.60;99.90;;;;;;5026026;28;20526;-77
2022/01/23 07:17:17;;;;;;;0.20;0.20;;;5.60;99.90;;;;;;5009477;28;20089;-77
2022/01/23 07:19:42;;;;;;;0.20;0.20;;;5.60;99.90;;;;;;5009678;28;20052;-77
2022/01/23 07:22:08;;;;;;;0.30;0.30;;;5.60;99.90;;;;;;5009005;28;20034;-77
2022/01/23 07:24:34;;;;;;;0.20;0.20;;;5.60;99.90;;;;;;5026637;28;20485;-76
2022/01/23 07:27:01;;;;;;;0.20;0.20;;;5.60;99.90;;;;;;5009138;28;20038;-77
2022/01/23 07:29:27;;;;;;;0.20;0.20;;;5.60;99.90;;;;;;5026572;28;20532;-76
2022/01/23 07:31:58;;;;;;;0.20;0.20;;;5.60;99.90;;;;;;5022067;28;20069;-77
2022/01/23 07:34:24;;;;;;;0.30;0.30;;;5.60;99.90;;;;;;5011371;28;20553;-76
2022/01/23 07:36:50;;;;;;;0.20;0.20;;;5.60;99.90;;;;;;5026318;28;20052;-76
2022/01/23 07:39:15;;;;;;;0.20;0.20;;;5.60;99.90;;;;;;5008659;28;20041;-76
2022/01/23 07:41:41;;;;;;;0.90;0.90;;;5.60;99.90;;;;;;5026941;28;20048;-76
2022/01/23 07:44:07;;;;;;;0.20;0.20;;;5.60;99.90;;;;;;5025187;28;20106;-76
2022/01/23 07:46:32;;;;;;;3.30;2.85;;;5.60;99.90;;;;;;5026174;28;20439;-77
2022/01/23 07:48:58;;;;;;;0.40;0.40;;;5.60;99.90;;;;;;5008684;28;20053;-77
2022/01/23 07:51:24;;;;;;;0.20;0.20;;;5.60;99.90;;;;;;5024165;28;20060;-77
2022/01/23 07:53:50;;;;;;;0.20;0.20;;;5.60;99.90;;;;;;5008692;28;20049;-76
2022/01/23 07:56:16;;;;;;;0.90;0.88;;;5.60;99.90;;;;;;5024922;28;20052;-77
2022/01/23 07:58:42;;;;;;;0.22;0.22;;;5.70;99.90;;;;;;5021673;28;20042;-77
2022/01/23 08:01:08;;;;;;;0.30;0.30;;;5.70;99.90;;;;;;5009069;28;20047;-77
2022/01/23 08:03:33;;;;;;;5.25;4.78;;;5.70;99.90;;;;;;5006677;28;20132;-77
2022/01/23 08:05:59;;;;;;;1.75;0.88;;;5.70;99.90;;;;;;4990320;28;20471;-77
2022/01/23 08:08:25;;;;;;;1.05;1.05;;;5.70;99.90;;;;;;5006277;28;20050;-77
2022/01/23 08:10:50;;;;;;;0.30;0.30;;;5.70;99.90;;;;;;5014199;28;20059;-76
2022/01/23 08:13:16;;;;;;;0.45;0.45;;;5.70;99.90;;;;;;5006694;28;20038;-77
2022/01/23 08:15:41;;;;;;;0.60;0.57;;;5.70;99.90;;;;;;4990531;28;20042;-77
2022/01/23 08:18:08;;;;;;;2.28;1.50;;;5.70;99.90;;;;;;4989972;28;20485;-76
2022/01/23 08:20:34;;;;;;;0.80;0.80;;;5.80;99.90;;;;;;5012812;28;20695;-77
2022/01/23 08:23:02;;;;;;;0.20;0.20;;;5.70;99.90;;;;;;5026097;28;20037;-77
2022/01/23 08:25:29;;;;;;;0.73;0.73;;;5.80;99.90;;;;;;5023704;28;20045;-77
2022/01/23 08:27:54;;;;;;;1.85;1.50;;;5.70;99.90;;;;;;5009997;28;20053;-77
2022/01/23 08:30:20;;;;;;;0.30;0.30;;;5.80;99.90;;;;;;5009929;28;20104;-77
2022/01/23 08:32:46;;;;;;;0.20;0.20;;;5.80;99.90;;;;;;5015641;28;20410;-77
2022/01/23 08:35:13;;;;;;;0.20;0.20;;;5.80;99.90;;;;;;5006790;28;20132;-77
2022/01/23 08:37:39;;;;;;;0.68;0.68;;;5.80;99.90;;;;;;5005348;28;20190;-77
2022/01/23 08:40:16;;;;;;;0.82;0.82;;;5.90;99.90;;;;;;5005472;28;20077;-77
2022/01/23 08:42:42;;;;;;;0.20;0.20;;;5.90;99.90;;;;;;5018525;28;20714;-77
2022/01/23 08:45:08;;;;;;;0.77;0.77;;;5.90;99.90;;;;;;5013054;28;20060;-77
2022/01/23 08:47:34;;;;;;;0.20;0.20;;;6.00;99.90;;;;;;5006890;28;20088;-76
2022/01/23 08:49:59;;;;;;;0.85;0.60;;;6.00;99.90;;;;;;5006297;28;20073;-76
2022/01/23 08:52:25;;;;;;;0.52;0.52;;;6.10;99.90;;;;;;4993018;28;20410;-76
2022/01/23 08:54:56;;;;;;;0.55;0.55;;;6.10;99.90;;;;;;5026689;28;20049;-77
2022/01/23 08:57:22;;;;;;;0.82;0.82;;;6.20;99.90;;;;;;5025851;28;20453;-76
2022/01/23 08:59:48;;;;;;;0.40;0.40;;;6.20;99.90;;;;;;5025607;28;20376;-77
2022/01/23 09:02:14;;;;;;;0.30;0.30;;;6.20;99.90;;;;;;5006646;28;20049;-77
2022/01/23 09:04:40;;;;;;;0.30;0.30;;;6.20;99.90;;;;;;5009476;28;20445;-77
2022/01/23 09:07:05;;;;;;;0.82;0.82;;;6.30;99.90;;;;;;5017444;28;20050;-77
2022/01/23 09:09:36;;;;;;;1.00;0.93;;;6.30;99.90;;;;;;5006219;28;20041;-77
2022/01/23 09:12:21;;;;;;;1.45;0.93;;;6.30;99.90;;;;;;5010034;28;20417;-77
2022/01/23 09:14:46;;;;;;;0.20;0.20;;;6.30;99.90;;;;;;5005270;28;20050;-76
2022/01/23 09:17:12;;;;;;;0.25;0.25;;;6.30;99.90;;;;;;4989894;28;20053;-76
2022/01/23 09:19:39;;;;;;;0.40;0.40;;;6.30;99.90;;;;;;4996020;28;20048;-77
2022/01/23 09:22:05;;;;;;;0.82;0.82;;;6.30;99.90;;;;;;5029278;28;20772;-76
2022/01/23 09:24:30;;;;;;;0.77;0.77;;;6.40;99.90;;;;;;5013076;28;20041;-77
2022/01/23 09:27:03;;;;;;;0.40;0.40;;;6.40;99.90;;;;;;5016884;28;20461;-76
2022/01/23 09:29:33;;;;;;;0.60;0.60;;;6.40;99.90;;;;;;5026228;28;20049;-77
2022/01/23 09:32:00;;;;;;;0.30;0.30;;;6.50;99.90;;;;;;5011578;28;20045;-77
2022/01/23 09:34:29;;;;;;;0.22;0.22;;;6.50;99.90;;;;;;5012991;28;20111;-77
2022/01/23 09:36:56;;;;;;;0.75;0.75;;;6.50;99.90;;;;;;5028911;28;20060;-76
2022/01/23 09:39:23;;;;;;;1.40;1.13;;;6.60;99.90;;;;;;5012273;28;20057;-76
2022/01/23 09:42:09;;;;;;;0.28;0.28;;;6.60;99.90;;;;;;5009411;28;20041;-76
2022/01/23 09:44:44;;;;;;;0.55;0.55;;;6.70;99.90;;;;;;5028034;28;20041;-76
2022/01/23 09:47:12;;;;;;;0.32;0.32;;;6.70;99.90;;;;;;5009669;28;20042;-76
2022/01/23 09:49:39;;;;;;;0.75;0.75;;;6.70;99.90;;;;;;5009500;28;20093;-77
2022/01/23 09:52:07;;;;;;;0.40;0.40;;;6.70;99.90;;;;;;5009634;28;20088;-76
2022/01/23 09:54:33;;;;;;;1.92;0.77;;;6.70;99.90;;;;;;5004096;28;20144;-76
2022/01/23 09:57:02;;;;;;;2.08;1.13;;;6.80;99.90;;;;;;5009248;28;20046;-77
2022/01/23 09:59:29;;;;;;;0.30;0.30;;;6.80;99.90;;;;;;5009501;28;20042;-77
2022/01/23 10:01:56;;;;;;;0.28;0.28;;;6.80;99.90;;;;;;5009393;28;20496;-77
2022/01/23 10:04:23;;;;;;;0.15;0.15;;;6.80;99.90;;;;;;5011232;28;20034;-76
2022/01/23 10:06:49;;;;;;;0.30;0.30;;;6.90;99.90;;;;;;5028795;28;20053;-77
2022/01/23 10:09:15;;;;;;;0.80;0.80;;;6.90;99.90;;;;;;5009217;28;20048;-76
2022/01/23 10:11:43;;;;;;;0.40;0.40;;;6.90;99.90;;;;;;5019621;28;20129;-77
2022/01/23 10:14:09;;;;;;;1.45;1.35;;;7.00;99.90;;;;;;5008896;28;20041;-76
2022/01/23 10:16:35;;;;;;;0.75;0.75;;;7.10;99.90;;;;;;5012235;28;20164;-77
2022/01/23 10:19:03;;;;;;;0.20;0.20;;;7.10;99.90;;;;;;5011987;28;20065;-76
2022/01/23 10:21:33;;;;;;;0.20;0.20;;;7.10;99.90;;;;;;5022437;28;20650;-77
2022/01/23 10:23:59;;;;;;;0.90;0.75;;;7.20;99.90;;;;;;5011407;28;20065;-77
2022/01/23 10:26:49;;;;;;;0.45;0.45;;;7.20;99.90;;;;;;5018848;28;20126;-77
2022/01/23 10:29:16;;;;;;;0.30;0.30;;;7.20;99.90;;;;;;5008687;28;20056;-77
2022/01/23 10:32:05;;;;;;;0.35;0.30;;;7.30;99.90;;;;;;5008629;28;20081;-77
2022/01/23 10:34:48;;;;;;;0.32;0.32;;;7.30;99.90;;;;;;5004118;28;20049;-77
2022/01/23 10:37:36;;;;;;;1.95;1.63;;;7.30;99.90;;;;;;5026650;28;20041;-77
2022/01/23 10:40:10;;;;;;;1.17;0.90;;;7.30;99.90;;;;;;5008357;28;20103;-77
2022/01/23 10:48:00;;;;;;;0.22;0.22;;;7.40;99.90;;;;;;5028240;28;20045;-76
2022/01/23 10:50:26;;;;;;;1.40;1.23;;;7.40;99.90;;;;;;5016539;28;20095;-77
2022/01/23 10:52:53;;;;;;;1.15;1.10;;;7.40;99.90;;;;;;5008499;28;20136;-76
2022/01/23 10:55:34;;;;;;;0.40;0.40;;;7.40;99.90;;;;;;5011703;28;20037;-76
2022/01/23 10:58:03;;;;;;;0.85;0.85;;;7.40;99.90;;;;;;5011515;28;20053;-76
2022/01/23 11:00:29;;;;;;;0.20;0.20;;;7.40;99.90;;;;;;5007214;28;20053;-76
2022/01/23 11:02:56;;;;;;;0.40;0.40;;;7.40;99.90;;;;;;5008431;28;20056;-76
2022/01/23 11:05:35;;;;;;;0.40;0.40;;;7.40;99.90;;;;;;5010881;28;20095;-76
2022/01/23 11:08:02;;;;;;;2.00;0.82;;;7.50;99.90;;;;;;5009687;28;20038;-76
2022/01/23 11:10:28;;;;;;;0.20;0.20;;;7.50;99.90;;;;;;5018754;28;20081;-77
2022/01/23 11:18:35;;;;;;;0.30;0.30;;;7.50;99.90;;;;;;5007527;28;20045;-77
2022/01/23 11:21:14;;;;;;;4.43;0.80;;;7.50;99.90;;;;;;5007889;28;20065;-76
2022/01/23 11:23:39;;;;;;;0.40;0.40;;;7.60;99.90;;;;;;5007409;28;20124;-76
2022/01/23 11:26:07;;;;;;;0.57;0.57;;;7.60;99.90;;;;;;4991494;28;20113;-76
2022/01/23 11:28:39;;;;;;;0.60;0.60;;;7.60;99.90;;;;;;5027412;28;20132;-76
2022/01/23 11:31:08;;;;;;;13.50;1.55;;;7.60;99.90;;;;;;5006782;28;20212;-76
2022/01/23 11:33:33;;;;;;;0.88;0.88;;;7.60;99.90;;;;;;5007842;28;20061;-76
2022/01/23 11:36:00;;;;;;;2.30;1.42;;;7.60;99.90;;;;;;4991649;28;20034;-76
2022/01/23 11:38:27;;;;;;;0.65;0.60;;;7.60;99.90;;;;;;5023774;28;20098;-76
2022/01/23 11:54:45;;;;;;;0.25;0.25;;;7.60;99.90;;;;;;5023784;28;20061;-76
2022/01/23 11:57:33;;;;;;;0.28;0.28;;;7.60;99.90;;;;;;5005569;28;20046;-76
2022/01/23 12:00:02;;;;;;;1.13;1.02;;;7.70;99.90;;;;;;4990679;28;20049;-76
2022/01/23 12:02:35;;;;;;;0.95;0.95;;;7.80;99.90;;;;;;5015551;28;20428;-76
2022/01/23 12:05:16;;;;;;;0.60;0.57;;;7.70;99.90;;;;;;5008057;28;20072;-76
2022/01/23 12:07:44;;;;;;;1.30;1.20;;;7.80;99.90;;;;;;4990456;28;20049;-76
2022/01/23 12:10:25;;;;;;;0.20;0.20;;;7.80;99.90;;;;;;5026163;28;20037;-77
2022/01/23 12:13:34;;;;;;;1.50;0.95;;;7.80;99.90;;;;;;5006950;28;20050;-76
2022/01/23 12:18:47;;;;;;;0.85;0.85;;;7.80;99.90;;;;;;5026464;28;20525;-76
2022/01/23 12:21:27;;;;;;;0.40;0.40;;;7.80;99.90;;;;;;5021591;28;20049;-77
2022/01/23 12:23:58;;;;;;;0.80;0.80;;;7.80;99.90;;;;;;5006700;28;20046;-76
2022/01/23 12:26:24;;;;;;;1.55;0.90;;;7.80;99.90;;;;;;5011067;28;20049;-76
2022/01/23 12:28:50;;;;;;;0.40;0.40;;;7.80;99.90;;;;;;5019034;28;20569;-76
2022/01/23 12:31:15;;;;;;;0.95;0.95;;;7.80;99.90;;;;;;5010073;28;20042;-76
2022/01/23 12:33:58;;;;;;;1.75;1.65;;;7.90;99.90;;;;;;5026095;28;20050;-76
2022/01/23 12:36:27;;;;;;;0.30;0.30;;;7.90;99.90;;;;;;5023672;28;20544;-76
2022/01/23 12:38:56;;;;;;;0.75;0.75;;;7.80;99.90;;;;;;5010045;28;20053;-76
2022/01/23 12:41:51;;;;;;;1.30;0.30;;;7.90;99.90;;;;;;4998584;28;20050;-76
2022/01/23 12:44:22;;;;;;;0.52;0.52;;;7.90;99.90;;;;;;4992133;28;20068;-76
2022/01/23 12:46:53;;;;;;;1.08;1.02;;;7.80;99.90;;;;;;4993969;28;20092;-76
2022/01/23 12:49:25;;;;;;;0.38;0.38;;;7.90;99.90;;;;;;5011780;28;20191;-76
2022/01/23 12:52:10;;;;;;;0.65;0.65;;;7.80;99.90;;;;;;5027794;28;20088;-76
2022/01/23 12:54:47;;;;;;;0.73;0.73;;;7.80;99.90;;;;;;5010665;28;20057;-76
2022/01/23 12:57:30;;;;;;;0.60;0.60;;;7.80;99.90;;;;;;5026258;28;20112;-76
2022/01/23 12:59:59;;;;;;;1.10;1.05;;;7.80;99.90;;;;;;5018362;28;20049;-77
2022/01/23 13:02:31;;;;;;;0.70;0.57;;;7.80;99.90;;;;;;5012273;28;21041;-76
2022/01/23 13:04:57;;;;;;;0.82;0.63;;;7.80;99.90;;;;;;5012146;28;20053;-77
2022/01/23 13:10:11;;;;;;;0.47;0.47;;;7.80;99.90;;;;;;5031807;28;20092;-76
2022/01/23 13:17:46;;;;;;;0.35;0.35;;;7.80;99.90;;;;;;5031382;28;20190;-76
2022/01/23 13:31:56;;;;;;;0.30;0.30;;;8.00;99.90;;;;;;5029814;28;20083;-76
2022/01/23 13:34:34;;;;;;;0.95;0.75;;;8.00;99.90;;;;;;5013110;28;20045;-77
2022/01/23 13:37:07;;;;;;;0.30;0.30;;;7.90;99.90;;;;;;5026359;28;20041;-76
2022/01/23 13:39:43;;;;;;;2.40;1.38;;;8.00;99.90;;;;;;5009776;28;20049;-77
2022/01/23 13:42:34;;;;;;;0.20;0.20;;;7.90;99.90;;;;;;5009672;28;20133;-76
2022/01/23 13:59:14;;;;;;;2.85;2.08;;;7.90;99.90;;;;;;5028688;28;20055;-76
2022/01/23 14:04:27;;;;;;;3.60;2.08;;;7.80;99.90;;;;;;5029177;28;20055;-77
2022/01/23 14:06:53;;;;;;;0.52;0.52;;;7.80;99.90;;;;;;5011209;28;20042;-76
2022/01/23 14:09:20;;;;;;;2.95;0.85;;;7.80;99.90;;;;;;5018170;28;20402;-78
2022/01/23 14:11:46;;;;;;;0.45;0.45;;;7.80;99.90;;;;;;5001605;28;20042;-76
2022/01/23 14:14:23;;;;;;;0.17;0.17;;;7.80;99.90;;;;;;5008852;28;20068;-76
2022/01/23 14:16:52;;;;;;;1.20;1.10;;;7.80;99.90;;;;;;5025196;28;20109;-76
2022/01/23 14:19:26;;;;;;;0.28;0.28;;;7.70;99.90;;;;;;5028693;28;20136;-77
2022/01/23 14:21:59;;;;;;;3.30;0.65;;;7.80;99.90;;;;;;5028619;28;20096;-76
2022/01/23 14:24:29;;;;;;;;;;;7.70;99.90;;;;;;4993254;28;20053;-76
2022/01/23 14:27:03;;;;;;;1.10;0.35;;;7.80;99.90;;;;;;4992289;28;19925;-76
2022/01/23 14:29:31;;;;;;;1.38;1.27;;;7.70;99.90;;;;;;5025021;28;20045;-76
2022/01/23 14:32:07;;;;;;;5.88;2.10;;;7.70;99.90;;;;;;5012145;28;20046;-76
2022/01/23 14:34:32;;;;;;;0.20;0.20;;;7.70;99.90;;;;;;5011808;28;20045;-76
2022/01/23 14:37:01;;;;;;;0.90;0.90;;;7.70;99.90;;;;;;5028584;28;20045;-77
2022/01/23 14:39:27;;;;;;;0.28;0.28;;;7.60;99.90;;;;;;5027841;28;20103;-76
2022/01/23 14:41:52;;;;;;;2.03;1.27;;;7.60;99.90;;;;;;5007885;28;20557;-76
2022/01/23 14:44:20;;;;;;;0.20;0.20;;;7.60;99.90;;;;;;5007797;28;20065;-76
2022/01/23 14:46:48;;;;;;;0.38;0.38;;;7.50;99.90;;;;;;5007466;28;20049;-76
2022/01/23 14:49:22;;;;;;;0.20;0.20;;;7.50;99.90;;;;;;5012367;28;20475;-76
2022/01/23 14:51:48;;;;;;;1.15;1.13;;;7.50;99.90;;;;;;5028262;28;20053;-76
2022/01/23 14:54:16;;;;;;;0.40;0.40;;;7.50;99.90;;;;;;5007758;28;20100;-76
2022/01/23 14:56:41;;;;;;;1.33;1.30;;;7.50;99.90;;;;;;5008439;28;20049;-76
2022/01/23 14:59:09;;;;;;;0.40;0.40;;;7.50;99.90;;;;;;5008568;28;20045;-76
2022/01/23 15:01:35;;;;;;;0.88;0.82;;;7.40;99.90;;;;;;5007001;28;20069;-76
2022/01/23 15:04:08;;;;;;;0.22;0.22;;;7.40;99.90;;;;;;4991916;28;20038;-76
2022/01/23 15:06:34;;;;;;;0.25;0.25;;;7.40;99.90;;;;;;5008860;28;20061;-76
2022/01/23 15:09:09;;;;;;;0.28;0.28;;;7.40;99.90;;;;;;5007982;28;20045;-76
2022/01/23 15:11:35;;;;;;;1.40;1.33;;;7.40;99.90;;;;;;5015394;28;20045;-76
2022/01/23 15:14:02;;;;;;;1.17;1.00;;;7.40;99.90;;;;;;5007880;28;20050;-77
2022/01/23 15:16:28;;;;;;;2.38;1.98;;;7.40;99.90;;;;;;5012653;28;20048;-76
2022/01/23 15:18:53;;;;;;;0.68;0.68;;;7.30;99.90;;;;;;5011018;28;20046;-76
2022/01/23 15:21:19;;;;;;;2.95;2.70;;;7.30;99.90;;;;;;5024888;28;20047;-76
2022/01/23 15:23:44;;;;;;;0.47;0.47;;;7.30;99.90;;;;;;4992650;28;20046;-76
2022/01/23 15:26:10;;;;;;;0.25;0.25;;;7.20;99.90;;;;;;5007793;28;20045;-77
2022/01/23 15:28:36;;;;;;;1.25;1.00;;;7.20;99.90;;;;;;5007936;28;20049;-76
2022/01/23 15:31:01;;;;;;;0.57;0.57;;;7.20;99.90;;;;;;5010204;28;20548;-76
2022/01/23 15:33:27;;;;;;;0.30;0.30;;;7.10;99.90;;;;;;5025926;28;20478;-77
2022/01/23 15:35:52;;;;;;;0.38;0.38;;;7.10;99.90;;;;;;5013105;28;20076;-76
2022/01/23 15:38:21;;;;;;;0.55;0.55;;;7.10;99.90;;;;;;5024232;28;20033;-76
2022/01/23 15:40:48;;;;;;;1.08;1.08;;;7.10;99.90;;;;;;5006757;28;20045;-76
2022/01/23 15:43:14;;;;;;;1.27;0.90;;;7.10;99.90;;;;;;5004899;28;20049;-76
2022/01/23 15:45:42;;;;;;;0.68;0.68;;;7.00;99.90;;;;;;4991798;28;20046;-77
2022/01/23 15:48:08;;;;;;;0.28;0.28;;;7.10;99.90;;;;;;5006267;28;20052;-77
2022/01/23 15:50:34;;;;;;;1.30;1.08;;;7.00;99.90;;;;;;4991411;28;20474;-77
2022/01/23 15:53:00;;;;;;;0.25;0.25;;;7.00;99.90;;;;;;5015448;28;20602;-77
2022/01/23 15:55:28;;;;;;;1.73;0.98;;;7.00;99.90;;;;;;5011024;28;20049;-76
2022/01/23 15:57:55;;;;;;;1.67;1.17;;;7.00;99.90;;;;;;5027319;28;20045;-76
2022/01/23 16:00:21;;;;;;;0.30;0.30;;;6.90;99.90;;;;;;5021177;28;20395;-76
2022/01/23 16:02:47;;;;;;;0.80;0.75;;;6.90;99.90;;;;;;5008081;28;20049;-76
2022/01/23 16:05:14;;;;;;;0.30;0.30;;;6.90;99.90;;;;;;5026786;28;20041;-76
2022/01/23 16:07:39;;;;;;;0.65;0.65;;;6.90;99.90;;;;;;5009122;28;20129;-76
2022/01/23 16:10:06;;;;;;;0.30;0.30;;;6.90;99.90;;;;;;5007023;28;20124;-76
2022/01/23 16:12:31;;;;;;;1.10;1.05;;;6.90;99.90;;;;;;5010869;28;20045;-76
2022/01/23 16:14:57;;;;;;;0.20;0.20;;;6.90;99.90;;;;;;5009546;28;20115;-76
2022/01/23 16:17:23;;;;;;;0.20;0.20;;;6.90;99.90;;;;;;5026777;28;20052;-76
2022/01/23 16:19:50;;;;;;;0.52;0.30;;;6.90;99.90;;;;;;5026658;28;20057;-76
2022/01/23 16:22:16;;;;;;;0.47;0.47;;;6.90;99.90;;;;;;5020262;28;20053;-76
2022/01/23 16:24:41;;;;;;;0.52;0.52;;;6.80;99.90;;;;;;5010061;28;20452;-76
2022/01/23 16:27:07;;;;;;;1.08;1.05;;;6.80;99.90;;;;;;5012529;28;20042;-76